Pagrindinis puslapis
METAR-TAF:

METAR-TAF

Oro uostai :

St. Michael, Aliaska, Jungtinės Amerikos Valstijos

platuma: 63-29-24N, ilguma: 162-06-37W, Aukštis: 30 m

Dabartinis oras

Ataskaita buvo paskelbta 1 valandą ir 1 minutes, ne 02:56 UTC
Vėjas 10 kt iš Šiaurės/Šiaurės Vakarų
Temperatūra 13°C
Drėgmė 82%
Slėgis 1002 hPa
Matomumas: 16.1 km
Mažai debesys ne aukštis 1300 ft
Apsiniaukę ne aukštis 5500 ft

METAR: PAMK 160256Z AUTO 34010KT 10SM FEW013 OVC055 13/10 A2959 RMK AO2 SLP020 60000 T01280100 53005

Laikas: 19:57 (03:57 UTC)


TAF: trūkstamas

Orai ataskaitas ir orų prognozės (METAR, TAF).

turimą stotys yra geltonos ir raudonos taškus žemėlapyje.

Perkelti pele per norėdami pamatyti stoties vardą.

Tada spustelėkite, norėdami matyti oro stebėjimo ir prognozės.

Norėdami pakeisti žemėlapį: spustelėkite ant žalios mygtukų su juodo kryžiaus žemyn,; žalią mygtuką su brūkšneliu, jei norite nutolinti; arba žalių rodyklių gretimoms žemėlapius.


METAR-TAF: